Accueil
METAR-TAF:

METAR-TAF

Aéroports :

Farnborough, Angleterre

latitude: 51-17N, longitude: 000-46W, altitude: 65 m

Observation

Le bulletin a été fait il y a 29 minutes, à 13:50 UTC
Vent 7 kt de nord-ouest, variant entre ouest et nord
Température 5°C
Humidité 81%
Pression 1037 hPa
Visibilité 10 km ou plus

METAR: EGLF 221350Z AUTO 32007KT 280V360 9999 OVC015/// 05/02 Q1037

Heure: 14:19 (14:19 UTC)

Prévision

Le bulletin a été fait il y a 1 heure et 47 minutes, à 12:32 UTC
Prévision valable du 22 à 12 UTC au 22 à 20 UTC
Vent 6 kt de ouest/nord-ouest
Visibilité 10 km ou plus
Nuages fragmentés à une hauteur de 2000 ft
Temporairement
du 22 à 12 UTC au 22 à 15 UTC
Nuages fragmentés à une hauteur de 1400 ft

TAF: EGLF 221232Z 2212/2220 30006KT 9999 BKN020 TEMPO 2212/2215 BKN014

Observations et prévisions météorologiques de plus de 4000 aéroports (messages METAR et TAF).

Les stations disponibles sont représentées par des disques jaunes et rouges sur la carte.

Passer la souris dessus pour voir le nom de la station.

Cliquer dessus pour voir les observations et prévisions météorologiques.

Pour changer de carte: cliquez sur les boutons verts avec une croix noire pour zoomer, sur le bouton vert avec un tiret pour effectuer un zoom arrière, ou sur les flèches vertes pour les cartes adjacentes.


METAR-TAF: